Terminal Aerodrome Forecast
Issued by NWS

Home | Current Version | Previous Version | Text Only | Print | Product List | Glossary On
Versions: 1 2 3 4 5 6 7 8 9 10 11 12 13 14 15 16 17 18 19
000
FTUS41 KBTV 271234 AAA
TAFMPV
TAF AMD
KMPV 271234Z 2713/2812 VRB03KT 6SM BR BKN015 OVC025
      TEMPO 2713/2715 3/4SM -SN BR OVC001
     FM271500 32006KT P6SM OVC020
     FM280000 35008KT P6SM OVC015=

USA.gov is the U.S. government's official web portal to all federal, state and local government web resources and services.